Time;durP1;ratioP1;P1;durP2;ratioP2;P2;SDS_P1;SDS_P2;PMS_P1;PMS_P2;Temp;Humidity;BMP_temperature;BMP_pressure;BME280_temperature;BME280_humidity;BME280_pressure;Samples;Min_cycle;Max_cycle;Signal;HPM_P1;HPM_P2
2020/12/09 00:01:45;;;;;;;;;;;20.40;34.40;;;;;;484054;246;1178;-68
2020/12/09 00:03:45;;;;;;;;;;;20.40;34.60;;;;;;484060;246;2182;-69
2020/12/09 00:05:46;;;;;;;;;;;20.40;34.50;;;;;;484080;246;1504;-68
2020/12/09 00:07:47;;;;;;;;;;;20.40;34.50;;;;;;484067;246;1052;-68
2020/12/09 00:09:49;;;;;;;;;;;20.40;34.50;;;;;;484060;246;1350;-68
2020/12/09 00:11:50;;;;;;;;;;;20.30;34.50;;;;;;484069;246;1151;-68
2020/12/09 00:13:51;;;;;;;;;;;20.40;34.60;;;;;;484095;246;1049;-68
2020/12/09 00:15:52;;;;;;;;;;;20.40;34.50;;;;;;484081;246;1233;-68
2020/12/09 00:17:54;;;;;;;;;;;20.40;34.50;;;;;;484134;246;1152;-68
2020/12/09 00:19:55;;;;;;;;;;;20.40;34.50;;;;;;484141;246;2184;-68
2020/12/09 00:21:56;;;;;;;;;;;20.40;34.50;;;;;;484111;246;1237;-68
2020/12/09 00:23:58;;;;;;;;;;;20.30;34.60;;;;;;484170;246;1123;-68
2020/12/09 00:25:59;;;;;;;;;;;20.40;34.50;;;;;;484105;246;988;-68
2020/12/09 00:28:00;;;;;;;;;;;20.30;34.50;;;;;;484084;246;1126;-69
2020/12/09 00:30:02;;;;;;;;;;;20.30;34.60;;;;;;484058;246;1130;-68
2020/12/09 00:32:03;;;;;;;;;;;20.40;34.50;;;;;;484034;246;1314;-68
2020/12/09 00:34:05;;;;;;;;;;;20.40;34.40;;;;;;484134;246;1145;-68
2020/12/09 00:36:06;;;;;;;;;;;20.40;34.40;;;;;;484129;246;1214;-68
2020/12/09 00:38:07;;;;;;;;;;;20.40;34.50;;;;;;484085;246;1225;-68
2020/12/09 00:40:08;;;;;;;;;;;20.40;34.20;;;;;;484068;246;2195;-68
2020/12/09 00:42:10;;;;;;;;;;;20.30;34.10;;;;;;484066;246;1234;-68
2020/12/09 00:44:11;;;;;;;;;;;20.30;34.10;;;;;;484084;246;1098;-68
2020/12/09 00:46:12;;;;;;;;;;;20.30;34.70;;;;;;484067;246;1201;-68
2020/12/09 00:48:13;;;;;;;;;;;20.30;34.70;;;;;;484130;246;1197;-68
2020/12/09 00:50:27;;;;;;;;;;;20.30;34.70;;;;;;484117;246;1022;-68
2020/12/09 00:52:29;;;;;;;;;;;20.30;34.60;;;;;;484060;246;1198;-68
2020/12/09 00:54:30;;;;;;;;;;;20.40;34.70;;;;;;484150;246;1235;-68
2020/12/09 00:56:31;;;;;;;;;;;20.40;34.60;;;;;;484076;246;1931;-68
2020/12/09 00:58:32;;;;;;;;;;;20.40;34.50;;;;;;484157;246;1094;-68
2020/12/09 01:00:34;;;;;;;;;;;20.30;34.60;;;;;;484101;246;2184;-68
2020/12/09 01:02:35;;;;;;;;;;;20.40;34.60;;;;;;484148;246;1263;-68
2020/12/09 01:04:36;;;;;;;;;;;20.40;34.60;;;;;;484190;246;1057;-68
2020/12/09 01:06:38;;;;;;;;;;;20.40;34.50;;;;;;484191;246;1331;-68
2020/12/09 01:08:39;;;;;;;;;;;20.40;34.60;;;;;;484153;246;974;-69
2020/12/09 01:10:40;;;;;;;;;;;20.30;34.60;;;;;;484115;246;1282;-68
2020/12/09 01:12:41;;;;;;;;;;;20.30;34.60;;;;;;484171;246;1181;-68
2020/12/09 01:14:43;;;;;;;;;;;20.30;34.60;;;;;;484133;246;1084;-68
2020/12/09 01:16:44;;;;;;;;;;;20.40;34.60;;;;;;484112;246;1119;-68
2020/12/09 01:18:45;;;;;;;;;;;20.40;34.60;;;;;;484151;246;1240;-68
2020/12/09 01:20:46;;;;;;;;;;;20.40;34.60;;;;;;484100;246;2183;-69
2020/12/09 01:22:48;;;;;;;;;;;20.40;34.60;;;;;;484170;246;1182;-68
2020/12/09 01:24:49;;;;;;;;;;;20.40;34.60;;;;;;484171;246;1083;-68
2020/12/09 01:26:50;;;;;;;;;;;20.40;34.60;;;;;;484184;246;1026;-69
2020/12/09 01:28:52;;;;;;;;;;;20.40;34.60;;;;;;484166;246;1173;-68
2020/12/09 01:30:53;;;;;;;;;;;20.30;34.70;;;;;;484119;246;1137;-68
2020/12/09 01:32:54;;;;;;;;;;;20.30;34.70;;;;;;484108;246;1212;-68
2020/12/09 01:34:55;;;;;;;;;;;20.30;34.60;;;;;;484180;246;950;-68
2020/12/09 01:36:57;;;;;;;;;;;20.40;34.70;;;;;;484155;246;982;-68
2020/12/09 01:38:58;;;;;;;;;;;20.30;34.60;;;;;;484158;246;1133;-68
2020/12/09 01:40:59;;;;;;;;;;;20.40;34.60;;;;;;484156;246;2183;-68
2020/12/09 01:43:01;;;;;;;;;;;20.30;34.50;;;;;;484118;242;1194;-68
2020/12/09 01:45:02;;;;;;;;;;;20.20;34.50;;;;;;484253;246;1080;-68
2020/12/09 01:47:03;;;;;;;;;;;20.30;34.70;;;;;;484176;246;1171;-68
2020/12/09 01:49:04;;;;;;;;;;;20.30;34.50;;;;;;484123;246;1211;-68
2020/12/09 01:51:06;;;;;;;;;;;20.30;34.50;;;;;;484129;246;1179;-68
2020/12/09 01:53:07;;;;;;;;;;;20.40;34.50;;;;;;484109;246;1218;-68
2020/12/09 01:55:08;;;;;;;;;;;20.40;34.40;;;;;;484144;246;986;-68
2020/12/09 01:57:10;;;;;;;;;;;20.30;34.50;;;;;;484113;246;1103;-68
2020/12/09 01:59:11;;;;;;;;;;;20.30;34.50;;;;;;484174;246;964;-68
2020/12/09 02:01:12;;;;;;;;;;;20.30;34.50;;;;;;484168;246;2195;-69
2020/12/09 02:03:13;;;;;;;;;;;20.30;34.50;;;;;;484184;246;1321;-68
2020/12/09 02:05:15;;;;;;;;;;;20.30;34.50;;;;;;484152;246;951;-68
2020/12/09 02:07:16;;;;;;;;;;;20.30;34.40;;;;;;484152;246;1227;-68
2020/12/09 02:09:17;;;;;;;;;;;20.40;34.30;;;;;;484151;246;970;-68
2020/12/09 02:11:18;;;;;;;;;;;20.30;34.40;;;;;;484128;246;1120;-68
2020/12/09 02:13:20;;;;;;;;;;;20.40;34.40;;;;;;484160;246;994;-68
2020/12/09 02:15:21;;;;;;;;;;;20.30;34.40;;;;;;484150;246;1075;-68
2020/12/09 02:17:22;;;;;;;;;;;20.30;34.40;;;;;;484162;246;1140;-68
2020/12/09 02:19:24;;;;;;;;;;;20.40;34.40;;;;;;484103;246;1204;-68
2020/12/09 02:21:25;;;;;;;;;;;20.30;34.40;;;;;;484043;242;2196;-68
2020/12/09 02:23:26;;;;;;;;;;;20.30;34.10;;;;;;484079;246;1027;-68
2020/12/09 02:25:28;;;;;;;;;;;20.40;34.20;;;;;;484109;246;1088;-68
2020/12/09 02:27:29;;;;;;;;;;;20.40;34.50;;;;;;484076;246;2143;-68
2020/12/09 02:29:30;;;;;;;;;;;20.40;34.50;;;;;;484164;246;1060;-68
2020/12/09 02:31:32;;;;;;;;;;;20.40;34.50;;;;;;484103;246;1192;-68
2020/12/09 02:33:33;;;;;;;;;;;20.30;34.60;;;;;;484155;246;1110;-69
2020/12/09 02:35:35;;;;;;;;;;;20.30;34.60;;;;;;484137;246;1146;-68
2020/12/09 02:37:36;;;;;;;;;;;20.30;34.50;;;;;;484105;246;1165;-69
2020/12/09 02:39:37;;;;;;;;;;;20.40;34.50;;;;;;484125;246;2192;-68
2020/12/09 02:41:39;;;;;;;;;;;20.30;34.50;;;;;;484154;246;1425;-68
2020/12/09 02:43:40;;;;;;;;;;;20.40;34.60;;;;;;484134;246;998;-68
2020/12/09 02:45:41;;;;;;;;;;;20.30;34.60;;;;;;484098;246;1106;-69
2020/12/09 02:47:42;;;;;;;;;;;20.30;34.60;;;;;;484123;246;1117;-68
2020/12/09 02:49:44;;;;;;;;;;;20.40;34.50;;;;;;484134;246;1234;-68
2020/12/09 02:51:45;;;;;;;;;;;20.40;34.60;;;;;;484082;246;1148;-68
2020/12/09 02:53:46;;;;;;;;;;;20.30;34.60;;;;;;484128;246;1186;-68
2020/12/09 02:55:48;;;;;;;;;;;20.40;34.60;;;;;;484071;246;1077;-68
2020/12/09 02:57:49;;;;;;;;;;;20.40;34.60;;;;;;484131;246;972;-69
2020/12/09 02:59:50;;;;;;;;;;;20.30;34.70;;;;;;484143;246;2207;-68
2020/12/09 03:01:51;;;;;;;;;;;20.20;34.70;;;;;;484154;246;957;-68
2020/12/09 03:03:53;;;;;;;;;;;20.20;34.80;;;;;;484113;246;1304;-68
2020/12/09 03:05:55;;;;;;;;;;;20.30;34.80;;;;;;484097;246;1093;-68
2020/12/09 03:07:56;;;;;;;;;;;20.30;34.80;;;;;;484014;246;2373;-68
2020/12/09 03:09:57;;;;;;;;;;;20.20;34.70;;;;;;484154;246;1075;-68
2020/12/09 03:11:59;;;;;;;;;;;20.20;34.70;;;;;;484100;246;1061;-68
2020/12/09 03:14:00;;;;;;;;;;;20.20;34.60;;;;;;484135;246;984;-69
2020/12/09 03:16:01;;;;;;;;;;;20.20;34.60;;;;;;484116;246;960;-68
2020/12/09 03:18:02;;;;;;;;;;;20.30;34.50;;;;;;484118;246;978;-68
2020/12/09 03:20:04;;;;;;;;;;;20.30;34.50;;;;;;484152;246;2196;-68
2020/12/09 03:22:05;;;;;;;;;;;20.40;34.40;;;;;;484109;246;954;-68
2020/12/09 03:24:06;;;;;;;;;;;20.30;34.40;;;;;;484175;246;967;-68
2020/12/09 03:26:08;;;;;;;;;;;20.30;34.40;;;;;;484115;246;968;-68
2020/12/09 03:28:09;;;;;;;;;;;20.40;34.30;;;;;;484126;246;1212;-69
2020/12/09 03:30:10;;;;;;;;;;;20.30;34.30;;;;;;484085;246;1106;-68
2020/12/09 03:32:11;;;;;;;;;;;20.30;34.30;;;;;;484174;246;1295;-68
2020/12/09 03:34:13;;;;;;;;;;;20.30;34.30;;;;;;484069;246;1191;-68
2020/12/09 03:36:14;;;;;;;;;;;20.30;34.30;;;;;;484051;246;1049;-68
2020/12/09 03:38:15;;;;;;;;;;;20.40;34.30;;;;;;484117;246;1194;-68
2020/12/09 03:40:16;;;;;;;;;;;20.40;34.20;;;;;;484181;246;2184;-68
2020/12/09 03:42:18;;;;;;;;;;;20.30;34.30;;;;;;484143;246;1162;-68
2020/12/09 03:44:19;;;;;;;;;;;20.30;34.30;;;;;;484145;246;1077;-68
2020/12/09 03:46:22;;;;;;;;;;;20.30;34.40;;;;;;484139;246;1242;-68
2020/12/09 03:48:23;;;;;;;;;;;20.40;34.30;;;;;;484124;246;1049;-69
2020/12/09 03:50:24;;;;;;;;;;;20.40;34.20;;;;;;484067;246;1197;-68
2020/12/09 03:52:25;;;;;;;;;;;20.30;34.30;;;;;;484074;246;1024;-68
2020/12/09 03:54:27;;;;;;;;;;;20.30;34.40;;;;;;484131;246;970;-68
2020/12/09 03:56:28;;;;;;;;;;;20.20;34.40;;;;;;484076;246;1120;-68
2020/12/09 03:58:29;;;;;;;;;;;20.30;34.40;;;;;;484144;246;1263;-68
2020/12/09 04:00:31;;;;;;;;;;;20.20;34.40;;;;;;484085;246;2180;-68
2020/12/09 04:02:32;;;;;;;;;;;20.30;34.40;;;;;;484120;246;1120;-68
2020/12/09 04:04:34;;;;;;;;;;;20.30;34.40;;;;;;484157;246;1360;-68
2020/12/09 04:06:35;;;;;;;;;;;20.30;34.40;;;;;;484140;242;1047;-68
2020/12/09 04:08:36;;;;;;;;;;;20.40;34.40;;;;;;484150;246;1000;-69
2020/12/09 04:10:37;;;;;;;;;;;20.30;34.40;;;;;;484122;246;1242;-68
2020/12/09 04:12:39;;;;;;;;;;;20.30;34.10;;;;;;484077;246;1016;-69
2020/12/09 04:14:40;;;;;;;;;;;20.30;34.40;;;;;;484109;246;981;-68
2020/12/09 04:16:41;;;;;;;;;;;20.30;34.60;;;;;;484068;246;1003;-68
2020/12/09 04:18:42;;;;;;;;;;;20.30;34.60;;;;;;484106;246;1104;-68
2020/12/09 04:20:44;;;;;;;;;;;20.30;34.60;;;;;;484114;246;2200;-68
2020/12/09 04:22:48;;;;;;;;;;;20.30;34.70;;;;;;484207;246;943;-68
2020/12/09 04:24:49;;;;;;;;;;;20.30;34.80;;;;;;484135;246;1050;-68
2020/12/09 04:26:50;;;;;;;;;;;20.20;34.70;;;;;;484129;246;1173;-68
2020/12/09 04:28:51;;;;;;;;;;;20.20;34.70;;;;;;484186;246;991;-68
2020/12/09 04:30:53;;;;;;;;;;;20.20;34.70;;;;;;484075;246;1198;-68
2020/12/09 04:32:54;;;;;;;;;;;20.20;34.80;;;;;;484123;246;1039;-68
2020/12/09 04:34:55;;;;;;;;;;;20.20;34.80;;;;;;484140;246;1294;-68
2020/12/09 04:36:57;;;;;;;;;;;20.30;34.80;;;;;;484091;246;1309;-68
2020/12/09 04:38:58;;;;;;;;;;;20.20;34.80;;;;;;484148;246;1006;-68
2020/12/09 04:40:59;;;;;;;;;;;20.30;34.80;;;;;;484170;246;2192;-68
2020/12/09 04:43:00;;;;;;;;;;;20.30;34.80;;;;;;484122;246;1222;-68
2020/12/09 04:45:02;;;;;;;;;;;20.30;34.80;;;;;;484096;246;1150;-69
2020/12/09 04:47:03;;;;;;;;;;;20.30;34.70;;;;;;484105;246;1083;-69
2020/12/09 04:49:06;;;;;;;;;;;20.30;34.80;;;;;;484119;246;983;-68
2020/12/09 04:51:06;;;;;;;;;;;20.30;34.80;;;;;;484025;246;2261;-68
2020/12/09 04:53:07;;;;;;;;;;;20.20;34.80;;;;;;484131;246;944;-68
2020/12/09 04:55:09;;;;;;;;;;;20.30;34.90;;;;;;484140;246;1301;-68
2020/12/09 04:57:10;;;;;;;;;;;20.30;34.90;;;;;;484122;246;2223;-69
2020/12/09 04:59:11;;;;;;;;;;;20.20;34.90;;;;;;484179;246;950;-68
2020/12/09 05:01:13;;;;;;;;;;;20.20;34.80;;;;;;484076;246;2208;-68
2020/12/09 05:03:14;;;;;;;;;;;20.30;34.80;;;;;;484083;246;958;-68
2020/12/09 05:05:15;;;;;;;;;;;20.30;34.70;;;;;;484078;246;999;-68
2020/12/09 05:07:16;;;;;;;;;;;20.30;34.70;;;;;;484021;246;1117;-67
2020/12/09 05:09:18;;;;;;;;;;;20.30;34.60;;;;;;484016;246;1059;-67
2020/12/09 05:11:19;;;;;;;;;;;20.20;34.70;;;;;;484090;246;1041;-68
2020/12/09 05:13:20;;;;;;;;;;;20.20;34.70;;;;;;484110;246;1093;-68
2020/12/09 05:15:21;;;;;;;;;;;20.20;34.80;;;;;;484139;246;1157;-68
2020/12/09 05:17:23;;;;;;;;;;;20.20;34.60;;;;;;484067;242;1234;-68
2020/12/09 05:19:24;;;;;;;;;;;20.30;34.70;;;;;;484192;246;1048;-68
2020/12/09 05:21:26;;;;;;;;;;;20.20;34.70;;;;;;484106;246;2192;-68
2020/12/09 05:23:27;;;;;;;;;;;20.30;34.70;;;;;;484098;246;1179;-68
2020/12/09 05:25:28;;;;;;;;;;;20.20;34.60;;;;;;484103;246;1041;-68
2020/12/09 05:27:29;;;;;;;;;;;20.20;34.60;;;;;;483997;246;1118;-68
2020/12/09 05:29:31;;;;;;;;;;;20.30;34.60;;;;;;484023;246;1103;-68
2020/12/09 05:31:32;;;;;;;;;;;20.30;34.50;;;;;;483919;246;1218;-67
2020/12/09 05:33:33;;;;;;;;;;;20.30;34.50;;;;;;483931;246;1062;-68
2020/12/09 05:35:34;;;;;;;;;;;20.30;34.50;;;;;;483934;246;1075;-68
2020/12/09 05:37:36;;;;;;;;;;;20.30;34.50;;;;;;483876;246;1194;-68
2020/12/09 05:39:37;;;;;;;;;;;20.20;34.60;;;;;;483905;246;1058;-68
2020/12/09 05:41:38;;;;;;;;;;;20.20;34.60;;;;;;483947;246;2211;-68
2020/12/09 05:43:39;;;;;;;;;;;20.20;34.50;;;;;;483889;246;1044;-68
2020/12/09 05:45:41;;;;;;;;;;;20.20;34.50;;;;;;483758;246;1170;-68
2020/12/09 05:47:42;;;;;;;;;;;20.20;34.50;;;;;;483909;246;1195;-68
2020/12/09 05:49:43;;;;;;;;;;;20.30;34.60;;;;;;483943;246;996;-68
2020/12/09 05:51:45;;;;;;;;;;;20.30;34.50;;;;;;483869;246;1342;-68
2020/12/09 05:53:47;;;;;;;;;;;20.20;34.30;;;;;;483843;246;1006;-68
2020/12/09 05:55:48;;;;;;;;;;;20.20;34.30;;;;;;483790;246;2462;-68
2020/12/09 05:57:49;;;;;;;;;;;20.20;34.30;;;;;;483641;246;1179;-68
2020/12/09 05:59:50;;;;;;;;;;;20.30;34.40;;;;;;483973;246;1115;-68
2020/12/09 06:01:51;;;;;;;;;;;20.20;34.40;;;;;;483922;246;2200;-68
2020/12/09 06:03:53;;;;;;;;;;;20.30;34.40;;;;;;483899;246;1125;-68
2020/12/09 06:05:54;;;;;;;;;;;20.30;34.50;;;;;;483912;246;1081;-68
2020/12/09 06:07:55;;;;;;;;;;;20.20;34.50;;;;;;483966;246;1545;-68
2020/12/09 06:09:57;;;;;;;;;;;20.30;34.50;;;;;;483964;246;1038;-68
2020/12/09 06:11:58;;;;;;;;;;;20.30;34.50;;;;;;483890;246;1072;-68
2020/12/09 06:13:59;;;;;;;;;;;20.20;34.40;;;;;;483907;246;1154;-68
2020/12/09 06:16:00;;;;;;;;;;;20.30;34.60;;;;;;483918;246;1210;-68
2020/12/09 06:18:02;;;;;;;;;;;20.20;34.60;;;;;;483887;246;1289;-68
2020/12/09 06:20:03;;;;;;;;;;;20.30;34.50;;;;;;483732;246;1185;-68
2020/12/09 06:22:05;;;;;;;;;;;20.20;34.50;;;;;;483731;246;2196;-68
2020/12/09 06:24:06;;;;;;;;;;;20.20;34.50;;;;;;483715;246;1068;-68
2020/12/09 06:26:07;;;;;;;;;;;20.20;34.50;;;;;;483739;246;1249;-68
2020/12/09 06:28:08;;;;;;;;;;;20.20;34.50;;;;;;483827;246;1222;-68
2020/12/09 06:30:10;;;;;;;;;;;20.20;34.40;;;;;;483860;246;1093;-68
2020/12/09 06:32:11;;;;;;;;;;;20.20;34.50;;;;;;483791;246;1237;-68
2020/12/09 06:34:12;;;;;;;;;;;20.20;34.50;;;;;;483849;246;1339;-68
2020/12/09 06:36:14;;;;;;;;;;;20.20;34.50;;;;;;483829;246;1174;-68
2020/12/09 06:38:15;;;;;;;;;;;20.10;34.40;;;;;;483807;246;1173;-68
2020/12/09 06:40:16;;;;;;;;;;;20.10;34.40;;;;;;483604;242;1537;-68
2020/12/09 06:42:18;;;;;;;;;;;20.20;34.50;;;;;;483561;246;2188;-68
2020/12/09 06:44:20;;;;;;;;;;;20.20;34.40;;;;;;483698;246;1073;-68
2020/12/09 06:46:20;;;;;;;;;;;20.20;34.50;;;;;;483653;246;2238;-68
2020/12/09 06:48:21;;;;;;;;;;;20.20;34.50;;;;;;483653;246;1300;-68
2020/12/09 06:50:23;;;;;;;;;;;20.20;34.60;;;;;;483593;246;1279;-68
2020/12/09 06:52:24;;;;;;;;;;;20.20;34.60;;;;;;483756;246;1307;-69
2020/12/09 06:57:03;;;;;;;;;;;20.20;34.50;;;;;;483499;242;2137;-68
2020/12/09 06:59:05;;;;;;;;;;;20.20;34.40;;;;;;483670;246;1062;-68
2020/12/09 07:01:06;;;;;;;;;;;20.30;34.40;;;;;;483688;246;2187;-68
2020/12/09 07:03:07;;;;;;;;;;;20.30;34.40;;;;;;483687;246;1206;-68
2020/12/09 07:07:46;;;;;;;;;;;20.20;34.50;;;;;;483591;246;2283;-68
2020/12/09 07:09:47;;;;;;;;;;;20.30;34.40;;;;;;483608;246;1109;-68
2020/12/09 07:11:49;;;;;;;;;;;20.20;34.60;;;;;;483653;246;1222;-68
2020/12/09 07:13:50;;;;;;;;;;;20.20;34.60;;;;;;483722;246;1217;-68
2020/12/09 07:15:51;;;;;;;;;;;20.20;34.60;;;;;;483591;246;1148;-68
2020/12/09 07:17:52;;;;;;;;;;;20.20;34.70;;;;;;483467;246;1175;-68
2020/12/09 07:19:55;;;;;;;;;;;20.10;34.70;;;;;;483649;246;1114;-68
2020/12/09 07:21:55;;;;;;;;;;;20.10;34.80;;;;;;483564;246;2188;-68
2020/12/09 07:23:57;;;;;;;;;;;20.10;34.80;;;;;;483563;246;1294;-68
2020/12/09 07:25:58;;;;;;;;;;;20.20;34.90;;;;;;483467;246;1137;-69
2020/12/09 07:27:59;;;;;;;;;;;20.10;34.90;;;;;;483404;246;1225;-68
2020/12/09 07:30:04;;;;;;;;;;;20.10;34.80;;;;;;483499;246;1216;-68
2020/12/09 07:32:02;;;;;;;;;;;20.10;34.90;;;;;;483220;246;2182;-68
2020/12/09 07:34:03;;;;;;;;;;;20.20;35.00;;;;;;483383;246;1124;-68
2020/12/09 07:36:05;;;;;;;;;;;20.30;34.90;;;;;;483433;246;1112;-68
2020/12/09 07:38:06;;;;;;;;;;;20.30;34.80;;;;;;483355;246;1198;-68
2020/12/09 07:40:07;;;;;;;;;;;20.20;34.50;;;;;;483524;246;1072;-68
2020/12/09 07:42:09;;;;;;;;;;;20.20;34.90;;;;;;483485;246;2188;-68
2020/12/09 07:44:10;;;;;;;;;;;20.20;35.10;;;;;;483589;246;1182;-68
2020/12/09 07:46:12;;;;;;;;;;;20.20;35.10;;;;;;483358;246;1120;-68
2020/12/09 07:48:13;;;;;;;;;;;20.30;35.20;;;;;;483419;246;1216;-68
2020/12/09 07:50:14;;;;;;;;;;;20.30;35.10;;;;;;483600;246;1060;-68
2020/12/09 07:52:15;;;;;;;;;;;20.40;35.10;;;;;;483563;246;1277;-68
2020/12/09 07:54:17;;;;;;;;;;;20.30;35.00;;;;;;483585;246;1049;-68
2020/12/09 07:56:18;;;;;;;;;;;20.30;35.10;;;;;;483442;246;1018;-68
2020/12/09 07:58:19;;;;;;;;;;;20.30;35.20;;;;;;483501;246;1154;-68
2020/12/09 08:00:20;;;;;;;;;;;20.30;35.10;;;;;;483483;246;1219;-68
2020/12/09 08:02:22;;;;;;;;;;;20.40;35.20;;;;;;483452;246;2200;-68
2020/12/09 08:04:23;;;;;;;;;;;20.30;35.10;;;;;;483542;246;1080;-68
2020/12/09 08:06:24;;;;;;;;;;;20.40;35.20;;;;;;483439;246;1316;-68
2020/12/09 08:08:27;;;;;;;;;;;20.30;35.20;;;;;;483354;246;1065;-68
2020/12/09 08:10:27;;;;;;;;;;;20.30;35.10;;;;;;483148;246;2136;-68
2020/12/09 08:12:28;;;;;;;;;;;20.40;35.10;;;;;;483260;246;1264;-68
2020/12/09 08:14:29;;;;;;;;;;;20.40;35.10;;;;;;483311;246;1111;-68
2020/12/09 08:16:31;;;;;;;;;;;20.40;35.10;;;;;;483481;246;1183;-68
2020/12/09 08:18:32;;;;;;;;;;;20.30;35.00;;;;;;483498;246;1148;-68
2020/12/09 08:20:33;;;;;;;;;;;20.30;35.10;;;;;;483390;246;1191;-68
2020/12/09 08:22:37;;;;;;;;;;;20.30;35.20;;;;;;483444;246;2204;-69
2020/12/09 08:24:36;;;;;;;;;;;20.30;35.00;;;;;;483283;246;2000;-68
2020/12/09 08:26:38;;;;;;;;;;;20.30;35.10;;;;;;483399;246;1072;-68
2020/12/09 08:28:39;;;;;;;;;;;20.30;35.10;;;;;;483343;246;1193;-68
2020/12/09 08:30:40;;;;;;;;;;;20.30;34.90;;;;;;483523;246;1200;-68
2020/12/09 08:32:41;;;;;;;;;;;20.30;34.90;;;;;;483445;246;1162;-68
2020/12/09 08:34:43;;;;;;;;;;;20.30;35.00;;;;;;483340;246;1016;-68
2020/12/09 08:36:44;;;;;;;;;;;20.30;34.90;;;;;;483306;243;1435;-69
2020/12/09 08:38:46;;;;;;;;;;;20.30;34.90;;;;;;483315;246;1127;-68
2020/12/09 08:40:46;;;;;;;;;;;20.30;34.80;;;;;;483229;246;2262;-68
2020/12/09 08:42:48;;;;;;;;;;;20.30;34.90;;;;;;483131;246;2171;-68
2020/12/09 08:44:49;;;;;;;;;;;20.30;34.90;;;;;;483159;246;1206;-68
2020/12/09 08:46:50;;;;;;;;;;;20.30;34.90;;;;;;483190;246;1199;-68
2020/12/09 08:48:52;;;;;;;;;;;20.30;34.80;;;;;;483052;246;1079;-68
2020/12/09 08:50:53;;;;;;;;;;;20.30;34.90;;;;;;483120;246;1054;-68
2020/12/09 08:52:54;;;;;;;;;;;20.40;34.90;;;;;;483269;246;1098;-68
2020/12/09 08:54:55;;;;;;;;;;;20.40;35.00;;;;;;483236;246;1171;-68
2020/12/09 08:56:57;;;;;;;;;;;20.40;34.90;;;;;;483177;246;1059;-68
2020/12/09 08:58:58;;;;;;;;;;;20.30;35.10;;;;;;483261;246;1226;-68
2020/12/09 09:00:59;;;;;;;;;;;20.30;35.10;;;;;;483287;246;1335;-68
2020/12/09 09:03:01;;;;;;;;;;;20.40;35.10;;;;;;483272;246;2257;-68
2020/12/09 09:05:02;;;;;;;;;;;20.40;35.10;;;;;;483334;246;1352;-68
2020/12/09 09:07:04;;;;;;;;;;;20.40;35.10;;;;;;483336;246;1155;-68
2020/12/09 09:09:04;;;;;;;;;;;20.30;35.10;;;;;;483121;246;2494;-68
2020/12/09 09:11:06;;;;;;;;;;;20.40;35.10;;;;;;483367;246;1114;-68
2020/12/09 09:13:07;;;;;;;;;;;20.40;35.10;;;;;;483222;246;1089;-69
2020/12/09 09:15:09;;;;;;;;;;;20.40;35.20;;;;;;483280;246;1274;-68
2020/12/09 09:17:10;;;;;;;;;;;20.40;35.10;;;;;;483326;246;1568;-68
2020/12/09 09:19:11;;;;;;;;;;;20.40;35.20;;;;;;483359;246;1383;-68
2020/12/09 09:21:12;;;;;;;;;;;20.40;35.30;;;;;;483551;246;1198;-68
2020/12/09 09:23:14;;;;;;;;;;;20.40;35.10;;;;;;483340;246;2184;-68
2020/12/09 09:25:15;;;;;;;;;;;20.40;34.90;;;;;;483282;246;1298;-68
2020/12/09 09:27:17;;;;;;;;;;;20.30;35.30;;;;;;483401;246;1102;-68
2020/12/09 09:29:18;;;;;;;;;;;20.30;35.40;;;;;;483218;246;1169;-68
2020/12/09 09:31:19;;;;;;;;;;;20.30;35.40;;;;;;483320;246;1191;-68
2020/12/09 09:33:21;;;;;;;;;;;20.30;35.40;;;;;;483259;246;1066;-68
2020/12/09 09:35:22;;;;;;;;;;;20.30;35.30;;;;;;483288;246;1216;-68
2020/12/09 09:37:24;;;;;;;;;;;20.30;35.20;;;;;;483237;246;1085;-68
2020/12/09 09:39:25;;;;;;;;;;;20.30;35.20;;;;;;483225;246;2147;-68
2020/12/09 09:41:26;;;;;;;;;;;20.40;35.20;;;;;;483206;246;1198;-68
2020/12/09 09:43:27;;;;;;;;;;;20.40;35.10;;;;;;483288;246;2192;-68
2020/12/09 09:45:28;;;;;;;;;;;20.40;35.10;;;;;;483467;246;1296;-68
2020/12/09 09:47:30;;;;;;;;;;;20.40;35.10;;;;;;483416;246;1124;-68
2020/12/09 09:49:31;;;;;;;;;;;20.40;35.00;;;;;;483393;242;1060;-68
2020/12/09 09:51:32;;;;;;;;;;;20.40;35.10;;;;;;483305;246;1082;-68
2020/12/09 09:53:34;;;;;;;;;;;20.40;35.00;;;;;;483289;246;1097;-68
2020/12/09 09:55:36;;;;;;;;;;;20.40;35.00;;;;;;483187;246;1147;-68
2020/12/09 09:57:37;;;;;;;;;;;20.40;35.00;;;;;;483036;246;1058;-68
2020/12/09 09:59:38;;;;;;;;;;;20.40;35.00;;;;;;483166;246;1266;-68
2020/12/09 10:01:39;;;;;;;;;;;20.40;35.00;;;;;;483325;246;1064;-68
2020/12/09 10:03:41;;;;;;;;;;;20.40;34.90;;;;;;483474;246;2183;-68
2020/12/09 10:05:42;;;;;;;;;;;20.40;34.80;;;;;;483315;246;1101;-68
2020/12/09 10:07:43;;;;;;;;;;;20.40;34.80;;;;;;483204;246;1094;-68
2020/12/09 10:09:45;;;;;;;;;;;20.40;34.80;;;;;;483298;246;1283;-68
2020/12/09 10:11:46;;;;;;;;;;;20.40;34.80;;;;;;483429;246;1168;-69
2020/12/09 10:13:47;;;;;;;;;;;20.40;34.90;;;;;;483334;246;1088;-69
2020/12/09 10:15:49;;;;;;;;;;;20.40;34.70;;;;;;483429;246;1167;-68
2020/12/09 10:17:50;;;;;;;;;;;20.40;34.90;;;;;;483487;242;1325;-68
2020/12/09 10:19:52;;;;;;;;;;;20.40;34.80;;;;;;483334;246;1116;-68
2020/12/09 10:21:53;;;;;;;;;;;20.40;34.80;;;;;;483254;246;1134;-68
2020/12/09 10:23:54;;;;;;;;;;;20.40;34.80;;;;;;483230;246;2200;-68
2020/12/09 10:25:56;;;;;;;;;;;20.40;34.80;;;;;;483416;246;1164;-71
2020/12/09 10:27:57;;;;;;;;;;;20.40;34.80;;;;;;483521;246;1280;-70
2020/12/09 10:29:58;;;;;;;;;;;20.30;34.80;;;;;;483185;246;1186;-70
2020/12/09 10:32:00;;;;;;;;;;;20.40;34.80;;;;;;483218;246;1038;-70
2020/12/09 10:34:01;;;;;;;;;;;20.40;34.80;;;;;;483232;246;1191;-69
2020/12/09 10:36:02;;;;;;;;;;;20.30;34.80;;;;;;482957;246;1109;-69
2020/12/09 10:38:04;;;;;;;;;;;20.30;34.80;;;;;;483180;246;1044;-69
2020/12/09 10:40:05;;;;;;;;;;;20.30;34.90;;;;;;483089;246;2209;-70
2020/12/09 10:42:06;;;;;;;;;;;20.30;35.00;;;;;;483389;246;1183;-69
2020/12/09 10:44:08;;;;;;;;;;;20.30;35.00;;;;;;483376;246;2203;-69
2020/12/09 10:46:09;;;;;;;;;;;20.30;35.00;;;;;;483426;246;1227;-70
2020/12/09 10:48:10;;;;;;;;;;;20.30;35.10;;;;;;483437;246;1065;-70
2020/12/09 10:50:11;;;;;;;;;;;20.30;35.10;;;;;;483217;246;1228;-71
2020/12/09 10:52:13;;;;;;;;;;;20.30;35.10;;;;;;483278;246;1133;-70
2020/12/09 10:54:14;;;;;;;;;;;20.30;35.20;;;;;;483224;246;1093;-70
2020/12/09 10:56:15;;;;;;;;;;;20.40;35.10;;;;;;483245;246;1243;-70
2020/12/09 10:58:16;;;;;;;;;;;20.30;35.10;;;;;;483349;246;1031;-70
2020/12/09 11:00:18;;;;;;;;;;;20.40;35.10;;;;;;483090;246;1274;-70
2020/12/09 11:02:19;;;;;;;;;;;20.40;35.00;;;;;;483133;242;1095;-70
2020/12/09 11:04:20;;;;;;;;;;;20.40;34.90;;;;;;483244;246;2171;-70
2020/12/09 11:06:22;;;;;;;;;;;20.30;35.30;;;;;;483464;245;1545;-70
2020/12/09 11:08:23;;;;;;;;;;;20.40;35.30;;;;;;483206;246;1149;-70
2020/12/09 11:10:24;;;;;;;;;;;20.40;35.40;;;;;;483119;246;1238;-70
2020/12/09 11:12:26;;;;;;;;;;;20.40;35.30;;;;;;483450;246;1306;-70
2020/12/09 11:14:27;;;;;;;;;;;20.30;35.30;;;;;;483361;246;1107;-70
2020/12/09 11:16:29;;;;;;;;;;;20.30;35.40;;;;;;483343;246;1214;-70
2020/12/09 11:18:30;;;;;;;;;;;20.30;35.40;;;;;;483404;246;1113;-70
2020/12/09 11:20:33;;;;;;;;;;;20.30;35.40;;;;;;483300;246;1303;-70
2020/12/09 11:22:32;;;;;;;;;;;20.40;35.40;;;;;;483182;246;2190;-70
2020/12/09 11:24:34;;;;;;;;;;;20.30;35.40;;;;;;483365;246;1046;-70
2020/12/09 11:26:35;;;;;;;;;;;20.30;35.30;;;;;;483328;246;1545;-70
2020/12/09 11:28:36;;;;;;;;;;;20.30;35.30;;;;;;483465;246;1236;-70
2020/12/09 11:30:37;;;;;;;;;;;20.30;35.30;;;;;;483275;242;1294;-70
2020/12/09 11:32:39;;;;;;;;;;;20.30;35.20;;;;;;483412;246;1154;-70
2020/12/09 11:34:40;;;;;;;;;;;20.40;35.20;;;;;;483492;246;1059;-70
2020/12/09 11:36:41;;;;;;;;;;;20.30;35.20;;;;;;483251;246;985;-70
2020/12/09 11:38:43;;;;;;;;;;;20.40;35.10;;;;;;483311;246;1105;-70
2020/12/09 11:40:44;;;;;;;;;;;20.30;35.10;;;;;;483342;246;1263;-69
2020/12/09 11:42:45;;;;;;;;;;;20.30;35.10;;;;;;483342;246;2192;-69
2020/12/09 11:44:47;;;;;;;;;;;20.30;35.00;;;;;;483347;246;1225;-69
2020/12/09 11:46:48;;;;;;;;;;;20.40;35.00;;;;;;483470;246;1179;-69
2020/12/09 11:48:49;;;;;;;;;;;20.40;34.90;;;;;;483382;246;1076;-70
2020/12/09 11:50:50;;;;;;;;;;;20.40;35.00;;;;;;483391;246;1248;-69
2020/12/09 11:52:52;;;;;;;;;;;20.40;35.00;;;;;;483366;246;1059;-69
2020/12/09 11:54:53;;;;;;;;;;;20.40;34.90;;;;;;483334;242;1279;-69
2020/12/09 11:56:54;;;;;;;;;;;20.30;34.90;;;;;;483468;246;1194;-69
2020/12/09 11:58:56;;;;;;;;;;;20.30;35.00;;;;;;483076;246;1212;-69
2020/12/09 12:00:57;;;;;;;;;;;20.40;34.90;;;;;;483315;242;1177;-69
2020/12/09 12:02:58;;;;;;;;;;;20.40;34.90;;;;;;483254;246;2184;-69